Time;durP1;ratioP1;P1;durP2;ratioP2;P2;SDS_P1;SDS_P2;PMS_P1;PMS_P2;Temp;Humidity;BMP_temperature;BMP_pressure;BME280_temperature;BME280_humidity;BME280_pressure;Samples;Min_cycle;Max_cycle;Signal;HPM_P1;HPM_P2
2022/11/16 00:00:14;;;;;;;0.00;0.00;;;;;;;;;;1754582;28;20243;-71
2022/11/16 00:01:08;;;;;;;0.00;0.00;;;;;;;;;;1753846;28;20229;-70
2022/11/16 00:01:59;;;;;;;0.00;0.00;;;;;;;;;;1753604;28;20221;-70
2022/11/16 00:02:51;;;;;;;0.00;0.00;;;;;;;;;;1753578;28;20201;-71
2022/11/16 00:03:42;;;;;;;0.00;0.00;;;;;;;;;;1753748;28;20205;-70
2022/11/16 00:04:35;;;;;;;0.00;0.00;;;;;;;;;;1753821;28;20576;-70
2022/11/16 00:05:26;;;;;;;0.00;0.00;;;;;;;;;;1754439;28;20575;-71
2022/11/16 00:06:18;;;;;;;0.00;0.00;;;;;;;;;;1760024;28;20618;-71
2022/11/16 00:07:09;;;;;;;0.00;0.00;;;;;;;;;;1761327;28;20288;-70
2022/11/16 00:08:00;;;;;;;0.00;0.00;;;;;;;;;;1759904;28;20207;-70
2022/11/16 00:10:06;;;;;;;0.00;0.00;;;;;;;;;;1759690;28;20236;-71
2022/11/16 00:11:03;;;;;;;0.00;0.00;;;;;;;;;;1760735;28;20205;-71
2022/11/16 00:11:57;;;;;;;0.00;0.00;;;;;;;;;;1760603;28;20212;-71
2022/11/16 00:12:48;;;;;;;0.00;0.00;;;;;;;;;;1760580;28;20303;-70
2022/11/16 00:13:40;;;;;;;0.00;0.00;;;;;;;;;;1760719;28;20644;-70
2022/11/16 00:14:33;;;;;;;0.00;0.00;;;;;;;;;;1760756;28;20575;-70
2022/11/16 00:15:25;;;;;;;0.00;0.00;;;;;;;;;;1761408;28;20211;-70
2022/11/16 00:16:18;;;;;;;0.00;0.00;;;;;;;;;;1760402;28;20255;-70
2022/11/16 00:17:09;;;;;;;0.00;0.00;;;;;;;;;;1760914;28;20235;-70
2022/11/16 00:18:01;;;;;;;0.00;0.00;;;;;;;;;;1760405;28;20580;-70
2022/11/16 00:18:55;;;;;;;0.00;0.00;;;;;;;;;;1753800;28;20722;-71
2022/11/16 00:19:47;;;;;;;0.00;0.00;;;;;;;;;;1760242;28;20812;-71
2022/11/16 00:20:38;;;;;;;0.00;0.00;;;;;;;;;;1763066;28;20212;-71
2022/11/16 00:21:30;;;;;;;0.00;0.00;;;;;;;;;;1763452;28;20718;-70
2022/11/16 00:22:22;;;;;;;0.00;0.00;;;;;;;;;;1763249;28;20208;-70
2022/11/16 00:23:13;;;;;;;0.00;0.00;;;;;;;;;;1763461;28;20232;-71
2022/11/16 00:24:05;;;;;;;0.00;0.00;;;;;;;;;;1762677;28;20629;-71
2022/11/16 00:24:56;;;;;;;0.00;0.00;;;;;;;;;;1763251;28;20629;-70
2022/11/16 00:25:49;;;;;;;0.00;0.00;;;;;;;;;;1763344;28;20212;-70
2022/11/16 00:26:40;;;;;;;0.00;0.00;;;;;;;;;;1763237;28;20235;-70
2022/11/16 00:27:32;;;;;;;0.00;0.00;;;;;;;;;;1763130;28;20208;-70
2022/11/16 00:28:23;;;;;;;0.00;0.00;;;;;;;;;;1763289;28;20246;-70
2022/11/16 00:29:16;;;;;;;0.00;0.00;;;;;;;;;;1763025;28;20208;-70
2022/11/16 00:30:09;;;;;;;0.00;0.00;;;;;;;;;;1763763;28;20247;-70
2022/11/16 00:31:03;;;;;;;0.00;0.00;;;;;;;;;;1762895;28;20203;-71
2022/11/16 00:31:55;;;;;;;0.00;0.00;;;;;;;;;;1762845;28;20197;-71
2022/11/16 00:32:47;;;;;;;0.00;0.00;;;;;;;;;;1762926;28;20212;-71
2022/11/16 00:33:38;;;;;;;0.00;0.00;;;;;;;;;;1763398;28;20239;-71
2022/11/16 00:34:30;;;;;;;0.00;0.00;;;;;;;;;;1763030;28;20486;-71
2022/11/16 00:35:21;;;;;;;0.00;0.00;;;;;;;;;;1763631;28;20660;-71
2022/11/16 00:36:14;;;;;;;0.00;0.00;;;;;;;;;;1763236;28;20196;-71
2022/11/16 00:37:05;;;;;;;0.00;0.00;;;;;;;;;;1763276;28;20288;-71
2022/11/16 00:37:57;;;;;;;0.00;0.00;;;;;;;;;;1762721;28;20220;-71
2022/11/16 00:38:51;;;;;;;0.00;0.00;;;;;;;;;;1760158;28;20229;-71
2022/11/16 00:39:43;;;;;;;0.00;0.00;;;;;;;;;;1758160;28;20213;-71
2022/11/16 00:40:34;;;;;;;0.00;0.00;;;;;;;;;;1763643;28;20208;-71
2022/11/16 00:41:26;;;;;;;0.00;0.00;;;;;;;;;;1762931;28;20547;-71
2022/11/16 00:42:17;;;;;;;0.00;0.00;;;;;;;;;;1762837;28;20236;-71
2022/11/16 00:43:09;;;;;;;0.00;0.00;;;;;;;;;;1763103;28;20235;-71
2022/11/16 00:44:01;;;;;;;0.00;0.00;;;;;;;;;;1763223;28;20292;-71
2022/11/16 00:44:53;;;;;;;0.00;0.00;;;;;;;;;;1762987;28;20253;-71
2022/11/16 00:45:44;;;;;;;0.00;0.00;;;;;;;;;;1763354;28;20235;-71
2022/11/16 00:46:37;;;;;;;0.00;0.00;;;;;;;;;;1763195;28;20205;-70
2022/11/16 00:47:28;;;;;;;0.00;0.00;;;;;;;;;;1762919;28;20549;-70
2022/11/16 00:48:21;;;;;;;0.00;0.00;;;;;;;;;;1763418;28;20200;-70
2022/11/16 00:49:12;;;;;;;0.00;0.00;;;;;;;;;;1762946;28;20606;-71
2022/11/16 00:50:03;;;;;;;0.00;0.00;;;;;;;;;;1763557;28;20224;-71
2022/11/16 00:50:55;;;;;;;0.00;0.00;;;;;;;;;;1763179;28;20665;-71
2022/11/16 00:51:46;;;;;;;0.00;0.00;;;;;;;;;;1762790;28;20311;-71
2022/11/16 00:52:38;;;;;;;0.00;0.00;;;;;;;;;;1763204;28;20580;-71
2022/11/16 00:53:29;;;;;;;0.00;0.00;;;;;;;;;;1763168;28;20274;-71
2022/11/16 00:54:22;;;;;;;0.00;0.00;;;;;;;;;;1763181;28;20247;-71
2022/11/16 00:55:13;;;;;;;0.00;0.00;;;;;;;;;;1763560;28;20256;-71
2022/11/16 00:56:05;;;;;;;0.10;0.10;;;;;;;;;;1762765;28;20232;-71
2022/11/16 00:56:56;;;;;;;0.00;0.00;;;;;;;;;;1763146;28;20250;-71
2022/11/16 00:57:48;;;;;;;0.00;0.00;;;;;;;;;;1762892;28;20583;-71
2022/11/16 00:58:39;;;;;;;0.00;0.00;;;;;;;;;;1763408;28;20313;-71
2022/11/16 00:59:31;;;;;;;0.00;0.00;;;;;;;;;;1762924;28;20700;-71
2022/11/16 01:00:22;;;;;;;0.00;0.00;;;;;;;;;;1763492;28;20224;-71
2022/11/16 01:01:14;;;;;;;0.00;0.00;;;;;;;;;;1763050;28;20537;-71
2022/11/16 01:02:07;;;;;;;0.00;0.00;;;;;;;;;;1762888;28;20263;-71
2022/11/16 01:02:59;;;;;;;0.00;0.00;;;;;;;;;;1762879;28;20197;-71
2022/11/16 01:03:50;;;;;;;0.00;0.00;;;;;;;;;;1763084;28;20208;-71
2022/11/16 01:04:42;;;;;;;0.00;0.00;;;;;;;;;;1763005;28;20608;-71
2022/11/16 01:05:33;;;;;;;0.00;0.00;;;;;;;;;;1763519;28;20299;-71
2022/11/16 01:06:25;;;;;;;0.00;0.00;;;;;;;;;;1762620;28;20292;-71
2022/11/16 01:07:16;;;;;;;0.00;0.00;;;;;;;;;;1763230;28;20227;-71
2022/11/16 01:08:08;;;;;;;0.00;0.00;;;;;;;;;;1757367;28;20266;-71
2022/11/16 01:09:00;;;;;;;0.00;0.00;;;;;;;;;;1758382;28;20260;-71
2022/11/16 01:09:52;;;;;;;0.00;0.00;;;;;;;;;;1761553;28;20605;-71
2022/11/16 01:10:43;;;;;;;0.00;0.00;;;;;;;;;;1763339;28;20201;-71
2022/11/16 01:12:45;;;;;;;0.00;0.00;;;;;;;;;;1762924;28;20200;-70
2022/11/16 01:13:36;;;;;;;0.00;0.00;;;;;;;;;;1763276;28;20237;-70
2022/11/16 01:14:27;;;;;;;0.00;0.00;;;;;;;;;;1762912;28;20372;-70
2022/11/16 01:15:20;;;;;;;0.00;0.00;;;;;;;;;;1763617;28;20351;-70
2022/11/16 01:16:13;;;;;;;0.00;0.00;;;;;;;;;;1762620;28;20287;-70
2022/11/16 01:17:05;;;;;;;0.00;0.00;;;;;;;;;;1763202;28;20201;-70
2022/11/16 01:17:57;;;;;;;0.00;0.00;;;;;;;;;;1762866;28;20660;-70
2022/11/16 01:18:50;;;;;;;0.00;0.00;;;;;;;;;;1763109;28;20232;-70
2022/11/16 01:19:41;;;;;;;0.00;0.00;;;;;;;;;;1762981;28;20747;-70
2022/11/16 01:20:33;;;;;;;0.00;0.00;;;;;;;;;;1763609;28;20641;-71
2022/11/16 01:21:25;;;;;;;0.00;0.00;;;;;;;;;;1757892;28;20212;-70
2022/11/16 01:22:17;;;;;;;0.00;0.00;;;;;;;;;;1751043;28;20206;-70
2022/11/16 01:23:08;;;;;;;0.00;0.00;;;;;;;;;;1762518;28;20208;-70
2022/11/16 01:24:00;;;;;;;0.00;0.00;;;;;;;;;;1763192;28;20193;-70
2022/11/16 01:24:51;;;;;;;0.00;0.00;;;;;;;;;;1762976;28;20215;-70
2022/11/16 01:25:43;;;;;;;0.00;0.00;;;;;;;;;;1763477;28;20207;-70
2022/11/16 01:26:34;;;;;;;0.00;0.00;;;;;;;;;;1762916;28;20238;-70
2022/11/16 01:27:26;;;;;;;0.00;0.00;;;;;;;;;;1763192;28;20196;-70
2022/11/16 01:28:17;;;;;;;0.00;0.00;;;;;;;;;;1762943;28;20208;-70
2022/11/16 01:29:08;;;;;;;0.00;0.00;;;;;;;;;;1762803;28;20193;-70
2022/11/16 01:30:02;;;;;;;0.00;0.00;;;;;;;;;;1763184;28;20201;-70
2022/11/16 01:30:53;;;;;;;0.00;0.00;;;;;;;;;;1762723;28;20617;-70
2022/11/16 01:31:45;;;;;;;0.00;0.00;;;;;;;;;;1761717;28;20503;-70
2022/11/16 01:32:36;;;;;;;0.00;0.00;;;;;;;;;;1761212;28;20249;-70
2022/11/16 01:33:30;;;;;;;0.00;0.00;;;;;;;;;;1761877;28;20287;-70
2022/11/16 01:34:23;;;;;;;0.00;0.00;;;;;;;;;;1761831;28;20233;-70
2022/11/16 01:35:16;;;;;;;0.00;0.00;;;;;;;;;;1762261;28;20228;-70
2022/11/16 01:36:13;;;;;;;0.00;0.00;;;;;;;;;;1761873;28;20626;-70
2022/11/16 01:37:04;;;;;;;0.00;0.00;;;;;;;;;;1761702;28;20644;-70
2022/11/16 01:37:56;;;;;;;0.00;0.00;;;;;;;;;;1757306;28;20529;-70
2022/11/16 01:38:47;;;;;;;0.00;0.00;;;;;;;;;;1758146;28;20243;-70
2022/11/16 01:39:39;;;;;;;0.00;0.00;;;;;;;;;;1757221;28;20205;-70
2022/11/16 01:40:30;;;;;;;0.00;0.00;;;;;;;;;;1762528;28;20240;-70
2022/11/16 01:41:23;;;;;;;0.00;0.00;;;;;;;;;;1761350;28;20205;-70
2022/11/16 01:42:17;;;;;;;0.00;0.00;;;;;;;;;;1761614;28;20253;-70
2022/11/16 01:43:11;;;;;;;0.00;0.00;;;;;;;;;;1761894;28;20204;-70
2022/11/16 01:44:04;;;;;;;0.00;0.00;;;;;;;;;;1761773;28;20201;-70
2022/11/16 01:45:02;;;;;;;0.00;0.00;;;;;;;;;;1762130;28;20296;-70
2022/11/16 01:45:53;;;;;;;0.00;0.00;;;;;;;;;;1761644;28;20212;-70
2022/11/16 01:46:45;;;;;;;0.00;0.00;;;;;;;;;;1762156;28;20594;-70
2022/11/16 01:47:37;;;;;;;0.00;0.00;;;;;;;;;;1761345;28;20604;-70
2022/11/16 01:48:31;;;;;;;0.00;0.00;;;;;;;;;;1762039;28;20200;-70
2022/11/16 01:49:23;;;;;;;0.00;0.00;;;;;;;;;;1761844;28;20510;-70
2022/11/16 01:50:17;;;;;;;0.00;0.00;;;;;;;;;;1762140;28;20197;-70
2022/11/16 01:51:08;;;;;;;0.00;0.00;;;;;;;;;;1760708;28;20638;-71
2022/11/16 01:52:02;;;;;;;0.00;0.00;;;;;;;;;;1748174;28;20281;-70
2022/11/16 01:52:55;;;;;;;0.00;0.00;;;;;;;;;;1754191;28;20198;-70
2022/11/16 01:53:47;;;;;;;0.00;0.00;;;;;;;;;;1754799;28;20209;-70
2022/11/16 01:54:40;;;;;;;0.00;0.00;;;;;;;;;;1760709;28;20212;-70
2022/11/16 01:55:33;;;;;;;0.00;0.00;;;;;;;;;;1761987;28;20224;-70
2022/11/16 01:56:25;;;;;;;0.00;0.00;;;;;;;;;;1761495;28;20584;-70
2022/11/16 01:57:19;;;;;;;0.00;0.00;;;;;;;;;;1761812;28;20200;-70
2022/11/16 01:58:11;;;;;;;0.00;0.00;;;;;;;;;;1761601;28;20630;-70
2022/11/16 01:59:04;;;;;;;0.00;0.00;;;;;;;;;;1761956;28;20266;-70
2022/11/16 01:59:57;;;;;;;0.00;0.00;;;;;;;;;;1761770;28;20232;-70
2022/11/16 02:00:49;;;;;;;0.00;0.00;;;;;;;;;;1762106;28;20209;-70
2022/11/16 02:01:40;;;;;;;0.00;0.00;;;;;;;;;;1761834;28;20221;-70
2022/11/16 02:02:32;;;;;;;0.00;0.00;;;;;;;;;;1761348;28;20232;-70
2022/11/16 02:03:25;;;;;;;0.00;0.00;;;;;;;;;;1761822;28;20237;-70
2022/11/16 02:04:19;;;;;;;0.00;0.00;;;;;;;;;;1761455;28;20228;-70
2022/11/16 02:05:12;;;;;;;0.00;0.00;;;;;;;;;;1762148;28;20224;-70
2022/11/16 02:06:19;;;;;;;0.00;0.00;;;;;;;;;;1761545;28;20203;-70
2022/11/16 02:07:15;;;;;;;0.00;0.00;;;;;;;;;;1744898;28;20452;-70
2022/11/16 02:10:50;;;;;;;0.00;0.00;;;;;;;;;;1755723;28;20251;-70
2022/11/16 02:11:57;;;;;;;0.00;0.00;;;;;;;;;;1761928;28;20559;-70
2022/11/16 02:12:55;;;;;;;0.00;0.00;;;;;;;;;;1761560;28;20205;-70
2022/11/16 02:13:55;;;;;;;0.00;0.00;;;;;;;;;;1761604;28;20643;-70
2022/11/16 02:14:53;;;;;;;0.00;0.00;;;;;;;;;;1761503;28;20227;-70
2022/11/16 02:15:46;;;;;;;0.00;0.00;;;;;;;;;;1761860;28;20534;-71
2022/11/16 02:16:43;;;;;;;0.03;0.03;;;;;;;;;;1761491;28;20205;-70
2022/11/16 02:17:42;;;;;;;0.00;0.00;;;;;;;;;;1761580;28;20193;-70
2022/11/16 02:18:37;;;;;;;0.00;0.00;;;;;;;;;;1761891;28;20250;-70
2022/11/16 02:19:43;;;;;;;0.00;0.00;;;;;;;;;;1756672;28;20240;-70
2022/11/16 02:20:43;;;;;;;0.00;0.00;;;;;;;;;;1755324;28;20244;-70
2022/11/16 02:21:36;;;;;;;0.00;0.00;;;;;;;;;;1757195;28;20213;-70
2022/11/16 02:22:37;;;;;;;0.00;0.00;;;;;;;;;;1761475;28;20662;-70
2022/11/16 02:23:47;;;;;;;0.00;0.00;;;;;;;;;;1761463;28;20209;-70
2022/11/16 02:24:43;;;;;;;0.00;0.00;;;;;;;;;;1761291;28;20565;-70
2022/11/16 02:25:38;;;;;;;0.00;0.00;;;;;;;;;;1761979;28;20209;-70
2022/11/16 02:26:43;;;;;;;0.00;0.00;;;;;;;;;;1761684;28;20288;-70
2022/11/16 02:27:56;;;;;;;0.00;0.00;;;;;;;;;;1761227;28;20209;-70
2022/11/16 02:28:51;;;;;;;0.00;0.00;;;;;;;;;;1755426;28;20653;-70
2022/11/16 02:29:46;;;;;;;0.00;0.00;;;;;;;;;;1760915;28;20288;-70
2022/11/16 02:30:38;;;;;;;0.00;0.00;;;;;;;;;;1762058;28;20213;-70
2022/11/16 02:31:33;;;;;;;0.00;0.00;;;;;;;;;;1761269;28;20553;-70
2022/11/16 02:32:26;;;;;;;0.00;0.00;;;;;;;;;;1761085;28;20243;-70
2022/11/16 02:33:20;;;;;;;0.00;0.00;;;;;;;;;;1761448;28;20232;-70
2022/11/16 02:34:13;;;;;;;0.00;0.00;;;;;;;;;;1761327;28;20216;-70
2022/11/16 02:35:07;;;;;;;0.00;0.00;;;;;;;;;;1761882;28;20239;-70
2022/11/16 02:36:00;;;;;;;0.00;0.00;;;;;;;;;;1761268;28;20487;-70
2022/11/16 02:36:53;;;;;;;0.00;0.00;;;;;;;;;;1761606;28;20193;-70
2022/11/16 02:37:47;;;;;;;0.00;0.00;;;;;;;;;;1760841;28;20243;-70
2022/11/16 02:38:40;;;;;;;0.00;0.00;;;;;;;;;;1761498;28;20216;-70
2022/11/16 02:39:32;;;;;;;0.00;0.00;;;;;;;;;;1761176;28;20228;-70
2022/11/16 02:40:25;;;;;;;0.00;0.00;;;;;;;;;;1761956;28;20180;-70
2022/11/16 02:41:19;;;;;;;0.00;0.00;;;;;;;;;;1761399;28;20205;-70
2022/11/16 02:42:15;;;;;;;0.00;0.00;;;;;;;;;;1761012;28;20217;-69
2022/11/16 02:43:07;;;;;;;0.00;0.00;;;;;;;;;;1760935;28;20208;-69
2022/11/16 02:44:02;;;;;;;0.00;0.00;;;;;;;;;;1761230;28;20200;-69
2022/11/16 02:44:57;;;;;;;0.00;0.00;;;;;;;;;;1761543;28;20246;-69
2022/11/16 02:45:51;;;;;;;0.00;0.00;;;;;;;;;;1761412;28;20452;-69
2022/11/16 02:46:44;;;;;;;0.00;0.00;;;;;;;;;;1761605;28;20212;-69
2022/11/16 02:47:37;;;;;;;0.00;0.00;;;;;;;;;;1761355;28;20205;-69
2022/11/16 02:48:30;;;;;;;0.00;0.00;;;;;;;;;;1761403;28;20209;-69
2022/11/16 02:49:23;;;;;;;0.00;0.00;;;;;;;;;;1761377;28;20212;-69
2022/11/16 02:50:17;;;;;;;0.00;0.00;;;;;;;;;;1761651;28;20232;-69
2022/11/16 02:51:10;;;;;;;0.00;0.00;;;;;;;;;;1760159;28;20205;-70
2022/11/16 02:52:01;;;;;;;0.00;0.00;;;;;;;;;;1747615;28;20248;-70
2022/11/16 02:52:54;;;;;;;0.00;0.00;;;;;;;;;;1754213;28;20197;-70
2022/11/16 02:53:52;;;;;;;0.00;0.00;;;;;;;;;;1754509;28;20343;-70
2022/11/16 02:54:44;;;;;;;0.00;0.00;;;;;;;;;;1754015;28;20205;-70
2022/11/16 02:55:35;;;;;;;0.00;0.00;;;;;;;;;;1754674;28;20205;-70
2022/11/16 02:56:27;;;;;;;0.00;0.00;;;;;;;;;;1760939;28;20654;-70
2022/11/16 02:57:28;;;;;;;0.00;0.00;;;;;;;;;;1761413;28;20201;-70
2022/11/16 02:58:20;;;;;;;0.00;0.00;;;;;;;;;;1763168;27;20224;-70
2022/11/16 02:59:13;;;;;;;0.00;0.00;;;;;;;;;;1761335;28;20285;-70
2022/11/16 03:00:07;;;;;;;0.00;0.00;;;;;;;;;;1762056;28;20201;-70
2022/11/16 03:01:01;;;;;;;0.00;0.00;;;;;;;;;;1758123;28;20698;-70
2022/11/16 03:01:55;;;;;;;0.00;0.00;;;;;;;;;;1754094;28;20198;-69
2022/11/16 03:02:51;;;;;;;0.00;0.00;;;;;;;;;;1754060;28;20233;-69
2022/11/16 03:03:44;;;;;;;0.00;0.00;;;;;;;;;;1754551;28;20252;-69
2022/11/16 03:04:38;;;;;;;0.00;0.00;;;;;;;;;;1754033;28;20255;-69
2022/11/16 03:05:31;;;;;;;0.00;0.00;;;;;;;;;;1755055;28;20240;-69
2022/11/16 03:06:24;;;;;;;0.00;0.00;;;;;;;;;;1754135;28;20355;-69
2022/11/16 03:07:18;;;;;;;0.00;0.00;;;;;;;;;;1754397;28;20620;-69
2022/11/16 03:08:14;;;;;;;0.00;0.00;;;;;;;;;;1761210;28;20204;-69
2022/11/16 03:09:07;;;;;;;0.00;0.00;;;;;;;;;;1755572;28;20544;-69
2022/11/16 03:10:00;;;;;;;0.00;0.00;;;;;;;;;;1759152;28;20277;-69
2022/11/16 03:12:07;;;;;;;0.00;0.00;;;;;;;;;;1754212;28;20589;-70
2022/11/16 03:12:58;;;;;;;0.00;0.00;;;;;;;;;;1754100;28;20637;-70
2022/11/16 03:13:51;;;;;;;0.00;0.00;;;;;;;;;;1754540;28;20197;-70
2022/11/16 03:14:46;;;;;;;0.00;0.00;;;;;;;;;;1754149;28;20704;-70
2022/11/16 03:15:41;;;;;;;0.00;0.00;;;;;;;;;;1754393;28;20530;-70
2022/11/16 03:16:34;;;;;;;0.00;0.00;;;;;;;;;;1760587;28;20242;-70
2022/11/16 03:17:29;;;;;;;0.00;0.00;;;;;;;;;;1760995;28;20308;-70
2022/11/16 03:18:21;;;;;;;0.00;0.00;;;;;;;;;;1761469;28;20675;-70
2022/11/16 03:19:16;;;;;;;0.00;0.00;;;;;;;;;;1760965;28;20275;-70
2022/11/16 03:20:09;;;;;;;0.00;0.00;;;;;;;;;;1761730;28;20530;-70
2022/11/16 03:21:04;;;;;;;0.00;0.00;;;;;;;;;;1761168;28;20203;-70
2022/11/16 03:21:58;;;;;;;0.00;0.00;;;;;;;;;;1764416;27;20255;-70
2022/11/16 03:22:50;;;;;;;0.00;0.00;;;;;;;;;;1763321;27;20233;-70
2022/11/16 03:23:42;;;;;;;0.00;0.00;;;;;;;;;;1761152;28;20216;-70
2022/11/16 03:24:33;;;;;;;0.00;0.00;;;;;;;;;;1761153;28;20386;-70
2022/11/16 03:25:26;;;;;;;0.00;0.00;;;;;;;;;;1761341;27;20341;-70
2022/11/16 03:26:20;;;;;;;0.00;0.00;;;;;;;;;;1754034;28;20520;-70
2022/11/16 03:27:15;;;;;;;0.00;0.00;;;;;;;;;;1754378;28;20205;-69
2022/11/16 03:28:08;;;;;;;0.00;0.00;;;;;;;;;;1753773;28;20260;-69
2022/11/16 03:29:01;;;;;;;0.00;0.00;;;;;;;;;;1754113;28;20197;-69
2022/11/16 03:29:58;;;;;;;0.00;0.00;;;;;;;;;;1753367;28;20531;-69
2022/11/16 03:30:52;;;;;;;0.00;0.00;;;;;;;;;;1754453;28;20556;-69
2022/11/16 03:31:47;;;;;;;0.00;0.00;;;;;;;;;;1759919;28;20262;-70
2022/11/16 03:32:42;;;;;;;0.00;0.00;;;;;;;;;;1760830;28;20250;-70
2022/11/16 03:33:35;;;;;;;0.00;0.00;;;;;;;;;;1761346;28;20211;-70
2022/11/16 03:34:29;;;;;;;0.00;0.00;;;;;;;;;;1760904;28;20209;-70
2022/11/16 03:35:22;;;;;;;0.00;0.00;;;;;;;;;;1761771;28;20713;-69
2022/11/16 03:36:16;;;;;;;0.00;0.00;;;;;;;;;;1760655;28;20277;-69
2022/11/16 03:37:08;;;;;;;0.00;0.00;;;;;;;;;;1761476;28;20197;-69
2022/11/16 03:38:01;;;;;;;0.00;0.00;;;;;;;;;;1760190;28;20492;-69
2022/11/16 03:38:52;;;;;;;0.00;0.00;;;;;;;;;;1757803;28;20596;-69
2022/11/16 03:39:44;;;;;;;0.00;0.00;;;;;;;;;;1756367;28;20292;-69
2022/11/16 03:40:37;;;;;;;0.00;0.00;;;;;;;;;;1761433;28;20208;-69
2022/11/16 03:41:29;;;;;;;0.00;0.00;;;;;;;;;;1761138;28;20452;-70
2022/11/16 03:42:21;;;;;;;0.00;0.00;;;;;;;;;;1760500;28;20267;-70
2022/11/16 03:43:14;;;;;;;0.00;0.00;;;;;;;;;;1761009;28;20254;-70
2022/11/16 03:44:06;;;;;;;0.00;0.00;;;;;;;;;;1760863;28;20240;-70
2022/11/16 03:44:58;;;;;;;0.00;0.00;;;;;;;;;;1761269;28;20208;-70
2022/11/16 03:45:50;;;;;;;0.00;0.00;;;;;;;;;;1761305;28;20232;-70
2022/11/16 03:46:42;;;;;;;0.00;0.00;;;;;;;;;;1761065;28;20205;-69
2022/11/16 03:47:34;;;;;;;0.00;0.00;;;;;;;;;;1760951;28;20216;-69
2022/11/16 03:48:25;;;;;;;0.00;0.00;;;;;;;;;;1760859;28;20247;-69
2022/11/16 03:49:20;;;;;;;0.00;0.00;;;;;;;;;;1761002;28;20204;-69
2022/11/16 03:50:11;;;;;;;0.00;0.00;;;;;;;;;;1761687;28;20224;-69
2022/11/16 03:51:04;;;;;;;0.00;0.00;;;;;;;;;;1760605;28;20519;-69
2022/11/16 03:51:55;;;;;;;0.00;0.00;;;;;;;;;;1748329;28;20459;-69
2022/11/16 03:52:47;;;;;;;0.00;0.00;;;;;;;;;;1753086;28;20266;-69
2022/11/16 03:53:38;;;;;;;0.00;0.00;;;;;;;;;;1753886;28;20256;-69
2022/11/16 03:54:30;;;;;;;0.00;0.00;;;;;;;;;;1753833;28;20304;-69
2022/11/16 03:55:21;;;;;;;0.00;0.00;;;;;;;;;;1754068;28;20237;-69
2022/11/16 03:56:13;;;;;;;0.00;0.00;;;;;;;;;;1758745;28;20573;-70
2022/11/16 03:57:04;;;;;;;0.00;0.00;;;;;;;;;;1761040;28;20507;-70
2022/11/16 03:57:56;;;;;;;0.00;0.00;;;;;;;;;;1760898;28;20459;-70
2022/11/16 03:58:48;;;;;;;0.00;0.00;;;;;;;;;;1760882;28;20389;-70
2022/11/16 03:59:40;;;;;;;0.00;0.00;;;;;;;;;;1757904;28;20200;-70
2022/11/16 04:00:31;;;;;;;0.00;0.00;;;;;;;;;;1759735;28;20648;-70
2022/11/16 04:01:24;;;;;;;0.00;0.00;;;;;;;;;;1760585;28;20483;-70
2022/11/16 04:02:15;;;;;;;0.00;0.00;;;;;;;;;;1756061;28;20236;-70
2022/11/16 04:03:07;;;;;;;0.00;0.00;;;;;;;;;;1755021;28;20336;-69
2022/11/16 04:03:58;;;;;;;0.00;0.00;;;;;;;;;;1753432;28;20751;-69
2022/11/16 04:25:04;;;;;;;0.00;0.00;;;;;;;;;;1760661;28;20759;-70
2022/11/16 04:25:55;;;;;;;0.00;0.00;;;;;;;;;;1761031;28;20631;-69
2022/11/16 04:28:13;;;;;;;0.00;0.00;;;;;;;;;;1760795;28;20193;-69
2022/11/16 04:29:05;;;;;;;0.00;0.00;;;;;;;;;;1760788;28;20500;-70
2022/11/16 04:29:57;;;;;;;0.00;0.00;;;;;;;;;;1760872;28;20204;-69
2022/11/16 04:37:52;;;;;;;0.00;0.00;;;;;;;;;;1760376;28;20301;-69
2022/11/16 04:38:43;;;;;;;0.00;0.00;;;;;;;;;;1758435;28;20208;-69
2022/11/16 04:39:35;;;;;;;0.00;0.00;;;;;;;;;;1754811;28;20208;-69
2022/11/16 04:40:28;;;;;;;0.00;0.00;;;;;;;;;;1754231;28;20216;-69
2022/11/16 04:42:26;;;;;;;0.00;0.00;;;;;;;;;;1738734;28;20296;-69
2022/11/16 04:43:17;;;;;;;0.00;0.00;;;;;;;;;;1748918;28;20658;-69
2022/11/16 04:44:09;;;;;;;0.00;0.00;;;;;;;;;;1761014;28;20249;-69
2022/11/16 04:47:21;;;;;;;0.00;0.00;;;;;;;;;;1754106;28;20238;-69
2022/11/16 04:48:13;;;;;;;0.00;0.00;;;;;;;;;;1760768;28;20254;-69
2022/11/16 04:49:05;;;;;;;0.00;0.00;;;;;;;;;;1760897;28;20208;-69
2022/11/16 04:49:57;;;;;;;0.00;0.00;;;;;;;;;;1760631;28;20207;-69
2022/11/16 04:50:48;;;;;;;0.00;0.00;;;;;;;;;;1760968;28;20219;-69
2022/11/16 04:51:40;;;;;;;0.00;0.00;;;;;;;;;;1760488;28;20201;-69
2022/11/16 04:52:31;;;;;;;0.00;0.00;;;;;;;;;;1760445;28;20638;-69
2022/11/16 04:53:25;;;;;;;0.00;0.00;;;;;;;;;;1760843;28;20618;-69
2022/11/16 04:54:16;;;;;;;0.00;0.00;;;;;;;;;;1760627;28;20212;-69
2022/11/16 04:55:08;;;;;;;0.00;0.00;;;;;;;;;;1761211;28;20189;-69
2022/11/16 04:56:01;;;;;;;0.00;0.00;;;;;;;;;;1756743;28;20244;-70
2022/11/16 04:56:52;;;;;;;0.00;0.00;;;;;;;;;;1751857;28;20205;-70
2022/11/16 04:57:44;;;;;;;0.00;0.00;;;;;;;;;;1753596;28;20577;-70
2022/11/16 04:58:35;;;;;;;0.00;0.00;;;;;;;;;;1758748;28;20258;-70
2022/11/16 04:59:27;;;;;;;0.00;0.00;;;;;;;;;;1760789;28;20201;-70
2022/11/16 05:00:19;;;;;;;0.00;0.00;;;;;;;;;;1760917;28;20559;-70
2022/11/16 05:01:11;;;;;;;0.00;0.00;;;;;;;;;;1760803;28;20205;-70
2022/11/16 05:02:08;;;;;;;0.00;0.00;;;;;;;;;;1760258;28;20209;-70
2022/11/16 05:03:03;;;;;;;0.00;0.00;;;;;;;;;;1760579;28;20224;-70
2022/11/16 05:03:54;;;;;;;0.00;0.00;;;;;;;;;;1760806;28;20235;-70
2022/11/16 05:04:46;;;;;;;0.00;0.00;;;;;;;;;;1760765;28;20529;-70
2022/11/16 05:05:37;;;;;;;0.00;0.00;;;;;;;;;;1761302;28;20654;-70
2022/11/16 05:06:29;;;;;;;0.00;0.00;;;;;;;;;;1760468;28;20228;-70
2022/11/16 05:07:20;;;;;;;0.00;0.00;;;;;;;;;;1761103;28;20217;-70
2022/11/16 05:08:12;;;;;;;0.00;0.00;;;;;;;;;;1761568;28;20197;-70
2022/11/16 05:09:03;;;;;;;0.00;0.00;;;;;;;;;;1756657;28;20193;-70
2022/11/16 05:09:54;;;;;;;0.00;0.00;;;;;;;;;;1759007;28;20193;-70
2022/11/16 05:10:46;;;;;;;0.00;0.00;;;;;;;;;;1762167;28;20208;-70
2022/11/16 05:11:37;;;;;;;0.00;0.00;;;;;;;;;;1762015;28;20212;-70
2022/11/16 05:12:30;;;;;;;0.00;0.00;;;;;;;;;;1761476;28;20201;-70
2022/11/16 05:13:21;;;;;;;0.00;0.00;;;;;;;;;;1762242;28;20201;-70
2022/11/16 05:14:13;;;;;;;0.00;0.00;;;;;;;;;;1762016;28;20509;-70
2022/11/16 05:15:05;;;;;;;0.00;0.00;;;;;;;;;;1762391;28;20235;-70
2022/11/16 05:15:57;;;;;;;0.00;0.00;;;;;;;;;;1761872;28;20230;-69
2022/11/16 05:16:48;;;;;;;0.00;0.00;;;;;;;;;;1761964;28;20211;-69
2022/11/16 05:17:40;;;;;;;0.00;0.00;;;;;;;;;;1761639;28;20626;-70
2022/11/16 05:18:33;;;;;;;0.00;0.00;;;;;;;;;;1762090;28;20282;-69
2022/11/16 05:21:44;;;;;;;0.00;0.00;;;;;;;;;;1752457;28;20544;-69
2022/11/16 05:22:36;;;;;;;0.00;0.00;;;;;;;;;;1752073;28;20225;-69
2022/11/16 05:24:38;;;;;;;0.00;0.00;;;;;;;;;;1754802;28;20527;-69
2022/11/16 05:25:29;;;;;;;0.00;0.00;;;;;;;;;;1755577;28;20898;-69
2022/11/16 05:26:20;;;;;;;0.00;0.00;;;;;;;;;;1759279;28;20236;-70
2022/11/16 05:27:13;;;;;;;0.00;0.00;;;;;;;;;;1761951;28;20208;-70
2022/11/16 05:28:04;;;;;;;0.00;0.00;;;;;;;;;;1761609;28;20630;-70
2022/11/16 05:28:56;;;;;;;0.00;0.00;;;;;;;;;;1762003;28;20201;-70
2022/11/16 05:29:48;;;;;;;0.00;0.00;;;;;;;;;;1761846;28;20247;-70
2022/11/16 05:30:40;;;;;;;0.00;0.00;;;;;;;;;;1762420;28;20288;-70
2022/11/16 05:31:31;;;;;;;0.00;0.00;;;;;;;;;;1761687;28;20276;-70
2022/11/16 05:32:24;;;;;;;0.00;0.00;;;;;;;;;;1761607;28;20212;-70
2022/11/16 05:33:17;;;;;;;0.00;0.00;;;;;;;;;;1761590;28;20329;-70
2022/11/16 05:34:10;;;;;;;0.00;0.00;;;;;;;;;;1761846;28;20203;-70
2022/11/16 05:35:07;;;;;;;0.00;0.00;;;;;;;;;;1761995;28;20295;-70
2022/11/16 05:35:59;;;;;;;0.00;0.00;;;;;;;;;;1761905;28;20189;-70
2022/11/16 05:36:50;;;;;;;0.00;0.00;;;;;;;;;;1762093;28;20240;-69
2022/11/16 05:37:42;;;;;;;0.00;0.00;;;;;;;;;;1759176;28;20193;-69
2022/11/16 05:38:33;;;;;;;0.00;0.00;;;;;;;;;;1755749;28;20245;-69
2022/11/16 05:39:25;;;;;;;0.00;0.00;;;;;;;;;;1757919;28;20210;-69
2022/11/16 05:40:16;;;;;;;0.00;0.00;;;;;;;;;;1755302;28;20209;-69
2022/11/16 05:41:09;;;;;;;0.00;0.00;;;;;;;;;;1754803;28;20197;-69
2022/11/16 05:42:00;;;;;;;0.00;0.00;;;;;;;;;;1754458;28;20206;-69
2022/11/16 05:42:52;;;;;;;0.00;0.00;;;;;;;;;;1754752;28;20201;-69
2022/11/16 05:43:43;;;;;;;0.00;0.00;;;;;;;;;;1754568;28;20201;-69
2022/11/16 05:44:35;;;;;;;0.00;0.00;;;;;;;;;;1754716;28;20235;-69
2022/11/16 05:45:26;;;;;;;0.00;0.00;;;;;;;;;;1755303;28;20657;-69
2022/11/16 05:46:18;;;;;;;0.00;0.00;;;;;;;;;;1754575;28;20262;-70
2022/11/16 05:47:11;;;;;;;0.00;0.00;;;;;;;;;;1755182;28;20206;-70
2022/11/16 05:48:02;;;;;;;0.00;0.00;;;;;;;;;;1755218;28;20209;-70
2022/11/16 05:48:54;;;;;;;0.00;0.00;;;;;;;;;;1761897;28;20192;-70
2022/11/16 05:49:46;;;;;;;0.00;0.00;;;;;;;;;;1761497;28;20495;-70
2022/11/16 05:50:38;;;;;;;0.00;0.00;;;;;;;;;;1762287;28;20209;-70
2022/11/16 05:51:29;;;;;;;0.00;0.00;;;;;;;;;;1761742;28;20243;-69
2022/11/16 05:52:21;;;;;;;0.00;0.00;;;;;;;;;;1761550;28;20768;-69
2022/11/16 05:53:12;;;;;;;0.00;0.00;;;;;;;;;;1761995;28;20284;-69
2022/11/16 05:54:04;;;;;;;0.00;0.00;;;;;;;;;;1761559;28;20235;-70
2022/11/16 05:54:56;;;;;;;0.00;0.00;;;;;;;;;;1762082;28;20270;-69
2022/11/16 05:55:47;;;;;;;0.00;0.00;;;;;;;;;;1760883;28;20632;-70
2022/11/16 05:56:39;;;;;;;0.00;0.00;;;;;;;;;;1754768;28;20208;-70
2022/11/16 05:57:30;;;;;;;0.00;0.00;;;;;;;;;;1754772;28;20213;-70
2022/11/16 05:58:22;;;;;;;0.00;0.00;;;;;;;;;;1754667;28;20378;-70